sensor_id;sensor_type;location;lat;lon;timestamp;pressure;altitude;pressure_sealevel;temperature;humidity
64876;BME280;51369;49.862;9.908;2023-04-04T00:01:12;99377.69;;;1.38;59.24
64876;BME280;51369;49.862;9.908;2023-04-04T00:03:37;99363.50;;;1.36;59.12
64876;BME280;51369;49.862;9.908;2023-04-04T00:06:03;99375.00;;;1.34;60.14
64876;BME280;51369;49.862;9.908;2023-04-04T00:08:28;99361.66;;;1.30;59.77
64876;BME280;51369;49.862;9.908;2023-04-04T00:11:00;99366.06;;;1.27;59.60
64876;BME280;51369;49.862;9.908;2023-04-04T00:13:25;99365.16;;;1.26;60.44
64876;BME280;51369;49.862;9.908;2023-04-04T00:15:52;99362.47;;;1.23;60.96
64876;BME280;51369;49.862;9.908;2023-04-04T00:18:17;99362.47;;;1.23;60.11
64876;BME280;51369;49.862;9.908;2023-04-04T00:20:43;99360.69;;;1.22;59.07
64876;BME280;51369;49.862;9.908;2023-04-04T00:23:08;99364.22;;;1.21;60.12
64876;BME280;51369;49.862;9.908;2023-04-04T00:25:36;99363.34;;;1.21;59.15
64876;BME280;51369;49.862;9.908;2023-04-04T00:28:02;99361.56;;;1.20;59.72
64876;BME280;51369;49.862;9.908;2023-04-04T00:30:29;99363.31;;;1.18;59.78
64876;BME280;51369;49.862;9.908;2023-04-04T00:32:56;99362.41;;;1.16;59.32
64876;BME280;51369;49.862;9.908;2023-04-04T00:35:22;99364.16;;;1.14;59.92
64876;BME280;51369;49.862;9.908;2023-04-04T00:37:47;99357.00;;;1.10;59.04
64876;BME280;51369;49.862;9.908;2023-04-04T00:40:13;99351.69;;;1.08;59.13
64876;BME280;51369;49.862;9.908;2023-04-04T00:42:39;99352.56;;;1.07;59.35
64876;BME280;51369;49.862;9.908;2023-04-04T00:45:07;99348.97;;;1.05;60.00
64876;BME280;51369;49.862;9.908;2023-04-04T00:47:33;99350.75;;;1.03;59.65
64876;BME280;51369;49.862;9.908;2023-04-04T00:49:59;99352.50;;;1.01;59.64
64876;BME280;51369;49.862;9.908;2023-04-04T00:52:25;99352.47;;;0.98;59.32
64876;BME280;51369;49.862;9.908;2023-04-04T00:54:51;99354.22;;;0.96;59.29
64876;BME280;51369;49.862;9.908;2023-04-04T00:57:17;99353.28;;;0.94;59.19
64876;BME280;51369;49.862;9.908;2023-04-04T00:59:44;99351.50;;;0.93;59.68
64876;BME280;51369;49.862;9.908;2023-04-04T01:02:10;99356.81;;;0.93;59.69
64876;BME280;51369;49.862;9.908;2023-04-04T01:04:35;99346.19;;;0.93;59.96
64876;BME280;51369;49.862;9.908;2023-04-04T01:07:01;99359.50;;;0.94;60.20
64876;BME280;51369;49.862;9.908;2023-04-04T01:09:27;99352.41;;;0.95;59.29
64876;BME280;51369;49.862;9.908;2023-04-04T01:11:54;99351.50;;;0.93;60.08
64876;BME280;51369;49.862;9.908;2023-04-04T01:14:21;99344.41;;;0.92;59.35
64876;BME280;51369;49.862;9.908;2023-04-04T01:16:50;99343.50;;;0.90;60.36
64876;BME280;51369;49.862;9.908;2023-04-04T01:19:23;99346.16;;;0.90;60.16
64876;BME280;51369;49.862;9.908;2023-04-04T01:21:51;99344.38;;;0.89;59.49
64876;BME280;51369;49.862;9.908;2023-04-04T01:24:18;99340.81;;;0.88;59.10
64876;BME280;51369;49.862;9.908;2023-04-04T01:26:52;99344.38;;;0.89;59.46
64876;BME280;51369;49.862;9.908;2023-04-04T01:29:18;99341.69;;;0.87;59.85
64876;BME280;51369;49.862;9.908;2023-04-04T01:31:56;99345.22;;;0.86;60.38
64876;BME280;51369;49.862;9.908;2023-04-04T01:34:38;99336.31;;;0.83;61.07
64876;BME280;51369;49.862;9.908;2023-04-04T01:40:17;99325.69;;;0.83;59.53
64876;BME280;51369;49.862;9.908;2023-04-04T01:42:46;99327.50;;;0.87;59.76
64876;BME280;51369;49.862;9.908;2023-04-04T01:45:12;99323.94;;;0.85;60.42
64876;BME280;51369;49.862;9.908;2023-04-04T01:47:41;99328.38;;;0.86;60.12
64876;BME280;51369;49.862;9.908;2023-04-04T01:50:12;99323.97;;;0.88;60.15
64876;BME280;51369;49.862;9.908;2023-04-04T01:52:38;99323.09;;;0.89;59.93
64876;BME280;51369;49.862;9.908;2023-04-04T01:55:04;99313.38;;;0.89;59.01
64876;BME280;51369;49.862;9.908;2023-04-04T01:57:30;99316.91;;;0.88;59.19
64876;BME280;51369;49.862;9.908;2023-04-04T01:59:56;99315.13;;;0.89;59.76
64876;BME280;51369;49.862;9.908;2023-04-04T02:02:22;99317.78;;;0.87;59.54
64876;BME280;51369;49.862;9.908;2023-04-04T02:04:48;99314.25;;;0.88;59.44
64876;BME280;51369;49.862;9.908;2023-04-04T02:07:13;99311.56;;;0.87;59.64
64876;BME280;51369;49.862;9.908;2023-04-04T02:09:39;99314.22;;;0.87;59.68
64876;BME280;51369;49.862;9.908;2023-04-04T02:12:06;99313.34;;;0.86;60.39
64876;BME280;51369;49.862;9.908;2023-04-04T02:14:32;99313.34;;;0.86;59.96
64876;BME280;51369;49.862;9.908;2023-04-04T02:16:58;99308.00;;;0.86;60.23
64876;BME280;51369;49.862;9.908;2023-04-04T02:19:24;99312.44;;;0.86;60.21
64876;BME280;51369;49.862;9.908;2023-04-04T02:21:50;99316.00;;;0.86;59.43
64876;BME280;51369;49.862;9.908;2023-04-04T02:24:15;99312.44;;;0.86;59.01
64876;BME280;51369;49.862;9.908;2023-04-04T02:26:41;99314.22;;;0.87;59.46
64876;BME280;51369;49.862;9.908;2023-04-04T02:29:07;99319.53;;;0.87;60.00
64876;BME280;51369;49.862;9.908;2023-04-04T02:31:33;99307.13;;;0.86;59.56
64876;BME280;51369;49.862;9.908;2023-04-04T02:33:58;99309.78;;;0.86;59.51
64876;BME280;51369;49.862;9.908;2023-04-04T02:36:24;99308.88;;;0.85;59.05
64876;BME280;51369;49.862;9.908;2023-04-04T02:38:51;99312.41;;;0.84;59.17
64876;BME280;51369;49.862;9.908;2023-04-04T02:41:18;99301.78;;;0.83;60.12
64876;BME280;51369;49.862;9.908;2023-04-04T02:43:43;99302.63;;;0.79;59.87
64876;BME280;51369;49.862;9.908;2023-04-04T02:46:09;99304.38;;;0.78;59.94
64876;BME280;51369;49.862;9.908;2023-04-04T02:48:34;99306.13;;;0.76;59.62
64876;BME280;51369;49.862;9.908;2023-04-04T02:51:01;99300.81;;;0.76;59.59
64876;BME280;51369;49.862;9.908;2023-04-04T02:53:27;99303.44;;;0.75;59.45
64876;BME280;51369;49.862;9.908;2023-04-04T02:55:56;99291.94;;;0.74;58.91
64876;BME280;51369;49.862;9.908;2023-04-04T02:58:22;99302.53;;;0.73;59.61
64876;BME280;51369;49.862;9.908;2023-04-04T03:00:54;99303.41;;;0.70;59.95
64876;BME280;51369;49.862;9.908;2023-04-04T03:03:21;99302.50;;;0.70;59.78
64876;BME280;51369;49.862;9.908;2023-04-04T03:05:48;99291.84;;;0.67;59.94
64876;BME280;51369;49.862;9.908;2023-04-04T03:08:14;99297.13;;;0.63;59.66
64876;BME280;51369;49.862;9.908;2023-04-04T03:10:40;99297.09;;;0.60;59.97
64876;BME280;51369;49.862;9.908;2023-04-04T03:13:05;99294.41;;;0.57;59.53
64876;BME280;51369;49.862;9.908;2023-04-04T03:15:32;99305.91;;;0.56;61.18
64876;BME280;51369;49.862;9.908;2023-04-04T03:17:59;99297.03;;;0.54;60.30
64876;BME280;51369;49.862;9.908;2023-04-04T03:20:26;99301.41;;;0.52;60.60
64876;BME280;51369;49.862;9.908;2023-04-04T03:22:52;99297.84;;;0.50;60.65
64876;BME280;51369;49.862;9.908;2023-04-04T03:25:17;99294.28;;;0.48;60.39
64876;BME280;51369;49.862;9.908;2023-04-04T03:27:43;99290.72;;;0.46;60.71
64876;BME280;51369;49.862;9.908;2023-04-04T03:30:09;99290.69;;;0.43;61.38
64876;BME280;51369;49.862;9.908;2023-04-04T03:32:35;99293.34;;;0.43;60.52
64876;BME280;51369;49.862;9.908;2023-04-04T03:35:01;99288.91;;;0.42;61.07
64876;BME280;51369;49.862;9.908;2023-04-04T03:37:28;99287.13;;;0.41;60.74
64876;BME280;51369;49.862;9.908;2023-04-04T03:39:54;99277.38;;;0.40;59.83
64876;BME280;51369;49.862;9.908;2023-04-04T03:42:20;99279.16;;;0.41;60.13
64876;BME280;51369;49.862;9.908;2023-04-04T03:44:46;99281.81;;;0.41;60.07
64876;BME280;51369;49.862;9.908;2023-04-04T03:47:18;99280.94;;;0.42;60.00
64876;BME280;51369;49.862;9.908;2023-04-04T03:49:44;99281.81;;;0.41;59.91
64876;BME280;51369;49.862;9.908;2023-04-04T03:52:10;99278.25;;;0.39;60.25
64876;BME280;51369;49.862;9.908;2023-04-04T03:54:36;99272.91;;;0.39;60.47
64876;BME280;51369;49.862;9.908;2023-04-04T03:57:01;99279.09;;;0.38;60.12
64876;BME280;51369;49.862;9.908;2023-04-04T03:59:28;99272.00;;;0.37;59.72
64876;BME280;51369;49.862;9.908;2023-04-04T04:01:53;99274.66;;;0.37;60.05
64876;BME280;51369;49.862;9.908;2023-04-04T04:04:19;99269.34;;;0.37;60.46
64876;BME280;51369;49.862;9.908;2023-04-04T04:06:44;99267.59;;;0.38;60.36
64876;BME280;51369;49.862;9.908;2023-04-04T04:09:09;99267.59;;;0.38;60.14
64876;BME280;51369;49.862;9.908;2023-04-04T04:11:36;99273.78;;;0.37;60.08
64876;BME280;51369;49.862;9.908;2023-04-04T04:14:01;99272.00;;;0.36;59.47
64876;BME280;51369;49.862;9.908;2023-04-04T04:16:29;99267.53;;;0.33;59.74
64876;BME280;51369;49.862;9.908;2023-04-04T04:18:57;99266.63;;;0.31;60.29
64876;BME280;51369;49.862;9.908;2023-04-04T04:21:32;99266.63;;;0.31;59.46
64876;BME280;51369;49.862;9.908;2023-04-04T04:23:57;99270.16;;;0.31;59.52
64876;BME280;51369;49.862;9.908;2023-04-04T04:26:23;99276.34;;;0.30;59.90
64876;BME280;51369;49.862;9.908;2023-04-04T04:28:48;99270.16;;;0.30;60.08
64876;BME280;51369;49.862;9.908;2023-04-04T04:31:18;99268.38;;;0.29;59.80
64876;BME280;51369;49.862;9.908;2023-04-04T04:33:47;99261.25;;;0.26;59.77
64876;BME280;51369;49.862;9.908;2023-04-04T04:36:13;99263.00;;;0.24;60.38
64876;BME280;51369;49.862;9.908;2023-04-04T04:38:51;99264.75;;;0.22;59.79
64876;BME280;51369;49.862;9.908;2023-04-04T04:41:17;99276.22;;;0.20;59.68
64876;BME280;51369;49.862;9.908;2023-04-04T04:43:46;99271.78;;;0.19;59.75
64876;BME280;51369;49.862;9.908;2023-04-04T04:46:13;99266.44;;;0.17;60.31
64876;BME280;51369;49.862;9.908;2023-04-04T04:48:39;99261.13;;;0.16;60.20
64876;BME280;51369;49.862;9.908;2023-04-04T04:51:05;99262.88;;;0.14;60.33
64876;BME280;51369;49.862;9.908;2023-04-04T04:53:40;99263.75;;;0.13;60.27
64876;BME280;51369;49.862;9.908;2023-04-04T04:56:06;99265.50;;;0.12;60.91
64876;BME280;51369;49.862;9.908;2023-04-04T04:58:33;99259.28;;;0.10;61.11
64876;BME280;51369;49.862;9.908;2023-04-04T05:01:01;99265.47;;;0.09;61.03
64876;BME280;51369;49.862;9.908;2023-04-04T05:03:34;99267.22;;;0.09;60.92
64876;BME280;51369;49.862;9.908;2023-04-04T05:06:03;99268.09;;;0.08;61.48
64876;BME280;51369;49.862;9.908;2023-04-04T05:08:29;99269.88;;;0.07;61.85
64876;BME280;51369;49.862;9.908;2023-04-04T05:11:05;99268.94;;;0.05;62.06
64876;BME280;51369;49.862;9.908;2023-04-04T05:13:32;99268.94;;;0.04;62.16
64876;BME280;51369;49.862;9.908;2023-04-04T05:15:58;99268.03;;;0.03;61.45
64876;BME280;51369;49.862;9.908;2023-04-04T05:18:24;99274.25;;;0.05;61.48
64876;BME280;51369;49.862;9.908;2023-04-04T05:20:53;99270.72;;;0.05;61.98
64876;BME280;51369;49.862;9.908;2023-04-04T05:23:19;99279.59;;;0.07;62.22
64876;BME280;51369;49.862;9.908;2023-04-04T05:25:48;99278.69;;;0.06;61.77
64876;BME280;51369;49.862;9.908;2023-04-04T05:28:14;99280.50;;;0.09;61.86
64876;BME280;51369;49.862;9.908;2023-04-04T05:30:40;99285.84;;;0.12;61.16
64876;BME280;51369;49.862;9.908;2023-04-04T05:33:14;99277.94;;;0.15;62.00
64876;BME280;51369;49.862;9.908;2023-04-04T05:35:45;99294.78;;;0.17;61.80
64876;BME280;51369;49.862;9.908;2023-04-04T05:38:11;99292.16;;;0.20;61.30
64876;BME280;51369;49.862;9.908;2023-04-04T05:40:37;99289.56;;;0.24;61.76
64876;BME280;51369;49.862;9.908;2023-04-04T05:43:10;99299.38;;;0.30;61.55
64876;BME280;51369;49.862;9.908;2023-04-04T05:45:49;99295.91;;;0.36;61.63
64876;BME280;51369;49.862;9.908;2023-04-04T05:48:16;99296.00;;;0.43;61.96
64876;BME280;51369;49.862;9.908;2023-04-04T05:50:47;99305.88;;;0.55;61.69
64876;BME280;51369;49.862;9.908;2023-04-04T05:53:15;99302.53;;;0.73;62.37
64876;BME280;51369;49.862;9.908;2023-04-04T05:55:43;99291.25;;;0.93;61.84
64876;BME280;51369;49.862;9.908;2023-04-04T05:58:09;99291.50;;;1.18;61.77
64876;BME280;51369;49.862;9.908;2023-04-04T06:00:46;99289.06;;;1.45;61.06
64876;BME280;51369;49.862;9.908;2023-04-04T06:03:11;99298.16;;;1.73;60.35
64876;BME280;51369;49.862;9.908;2023-04-04T06:05:38;99297.44;;;2.02;59.83
64876;BME280;51369;49.862;9.908;2023-04-04T06:08:04;99299.34;;;2.27;58.71
64876;BME280;51369;49.862;9.908;2023-04-04T06:10:30;99301.25;;;2.54;58.85
64876;BME280;51369;49.862;9.908;2023-04-04T06:12:55;99286.22;;;2.82;58.24
64876;BME280;51369;49.862;9.908;2023-04-04T06:15:21;99297.84;;;3.08;57.38
64876;BME280;51369;49.862;9.908;2023-04-04T06:17:46;99290.78;;;3.30;58.14
64876;BME280;51369;49.862;9.908;2023-04-04T06:20:12;99299.66;;;3.52;56.85
64876;BME280;51369;49.862;9.908;2023-04-04T06:22:38;99294.31;;;3.69;55.75
64876;BME280;51369;49.862;9.908;2023-04-04T06:25:04;99287.16;;;3.86;54.79
64876;BME280;51369;49.862;9.908;2023-04-04T06:27:30;99299.59;;;4.04;55.45
64876;BME280;51369;49.862;9.908;2023-04-04T06:29:58;99300.44;;;4.24;55.23
64876;BME280;51369;49.862;9.908;2023-04-04T06:32:23;99303.97;;;4.41;54.09
64876;BME280;51369;49.862;9.908;2023-04-04T06:34:49;99289.66;;;4.56;54.49
64876;BME280;51369;49.862;9.908;2023-04-04T06:37:20;99286.91;;;4.73;54.47
64876;BME280;51369;49.862;9.908;2023-04-04T06:39:55;99290.38;;;4.88;53.90
64876;BME280;51369;49.862;9.908;2023-04-04T06:42:23;99292.97;;;5.02;53.48
64876;BME280;51369;49.862;9.908;2023-04-04T06:44:50;99294.69;;;5.15;53.12
64876;BME280;51369;49.862;9.908;2023-04-04T06:47:16;99287.44;;;5.27;52.52
64876;BME280;51369;49.862;9.908;2023-04-04T06:49:41;99289.16;;;5.34;52.42
64876;BME280;51369;49.862;9.908;2023-04-04T06:52:07;99298.94;;;5.41;51.85
64876;BME280;51369;49.862;9.908;2023-04-04T06:54:32;99298.91;;;5.47;51.60
64876;BME280;51369;49.862;9.908;2023-04-04T06:56:57;99292.53;;;5.60;51.27
64876;BME280;51369;49.862;9.908;2023-04-04T06:59:23;99292.44;;;5.72;50.15
64876;BME280;51369;49.862;9.908;2023-04-04T07:01:48;99297.66;;;5.87;50.96
64876;BME280;51369;49.862;9.908;2023-04-04T07:04:13;99299.31;;;6.04;51.38
64876;BME280;51369;49.862;9.908;2023-04-04T07:06:39;99300.97;;;6.18;50.56
64876;BME280;51369;49.862;9.908;2023-04-04T07:09:04;99305.28;;;6.33;49.98
64876;BME280;51369;49.862;9.908;2023-04-04T07:11:30;99305.09;;;6.48;53.93
64876;BME280;51369;49.862;9.908;2023-04-04T07:13:55;99296.13;;;6.51;51.31
64876;BME280;51369;49.862;9.908;2023-04-04T07:16:21;99304.19;;;6.49;49.94
64876;BME280;51369;49.862;9.908;2023-04-04T07:18:47;99306.03;;;6.46;50.80
64876;BME280;51369;49.862;9.908;2023-04-04T07:21:12;99306.97;;;6.43;50.09
64876;BME280;51369;49.862;9.908;2023-04-04T07:23:38;99314.16;;;6.40;50.62
64876;BME280;51369;49.862;9.908;2023-04-04T07:26:03;99307.97;;;6.33;50.56
64876;BME280;51369;49.862;9.908;2023-04-04T07:28:28;99308.00;;;6.29;49.86
64876;BME280;51369;49.862;9.908;2023-04-04T07:30:58;99301.75;;;6.28;49.73
64876;BME280;51369;49.862;9.908;2023-04-04T07:33:23;99308.94;;;6.26;50.44
64876;BME280;51369;49.862;9.908;2023-04-04T07:35:49;99303.59;;;6.25;50.03
64876;BME280;51369;49.862;9.908;2023-04-04T07:38:14;99304.50;;;6.22;50.72
64876;BME280;51369;49.862;9.908;2023-04-04T07:40:40;99304.56;;;6.17;50.68
64876;BME280;51369;49.862;9.908;2023-04-04T07:43:05;99308.19;;;6.12;50.36
64876;BME280;51369;49.862;9.908;2023-04-04T07:45:31;99304.66;;;6.07;49.70
64876;BME280;51369;49.862;9.908;2023-04-04T07:47:56;99306.47;;;6.03;51.43
64876;BME280;51369;49.862;9.908;2023-04-04T07:50:22;99298.47;;;5.99;50.50
64876;BME280;51369;49.862;9.908;2023-04-04T07:52:48;99296.75;;;5.95;50.43
64876;BME280;51369;49.862;9.908;2023-04-04T07:55:16;99311.06;;;5.91;50.64
64876;BME280;51369;49.862;9.908;2023-04-04T07:57:43;99303.03;;;5.86;51.24
64876;BME280;51369;49.862;9.908;2023-04-04T08:00:09;99305.75;;;5.83;50.17
64876;BME280;51369;49.862;9.908;2023-04-04T08:02:38;99296.84;;;5.79;50.61
64876;BME280;51369;49.862;9.908;2023-04-04T08:05:04;99303.13;;;5.77;51.83
64876;BME280;51369;49.862;9.908;2023-04-04T08:07:30;99308.47;;;5.77;51.85
64876;BME280;51369;49.862;9.908;2023-04-04T08:09:55;99309.34;;;5.79;51.85
64876;BME280;51369;49.862;9.908;2023-04-04T08:12:21;99308.44;;;5.81;51.75
64876;BME280;51369;49.862;9.908;2023-04-04T08:14:46;99307.53;;;5.84;51.05
64876;BME280;51369;49.862;9.908;2023-04-04T08:17:12;99300.34;;;5.91;51.93
64876;BME280;51369;49.862;9.908;2023-04-04T08:19:38;99303.03;;;5.91;52.52
64876;BME280;51369;49.862;9.908;2023-04-04T08:22:04;99310.19;;;5.90;52.80
64876;BME280;51369;49.862;9.908;2023-04-04T08:24:29;99298.56;;;5.88;51.78
64876;BME280;51369;49.862;9.908;2023-04-04T08:26:54;99294.97;;;5.87;51.44
64876;BME280;51369;49.862;9.908;2023-04-04T08:29:20;99295.00;;;5.91;51.25
64876;BME280;51369;49.862;9.908;2023-04-04T08:31:46;99300.31;;;5.95;52.47
64876;BME280;51369;49.862;9.908;2023-04-04T08:34:11;99294.94;;;5.97;53.73
64876;BME280;51369;49.862;9.908;2023-04-04T08:36:37;99294.03;;;5.96;52.62
64876;BME280;51369;49.862;9.908;2023-04-04T08:39:03;99293.13;;;5.97;52.13
64876;BME280;51369;49.862;9.908;2023-04-04T08:41:29;99308.31;;;6.00;52.93
64876;BME280;51369;49.862;9.908;2023-04-04T08:43:56;99299.34;;;6.01;50.67
64876;BME280;51369;49.862;9.908;2023-04-04T08:46:23;99300.16;;;6.09;50.20
64876;BME280;51369;49.862;9.908;2023-04-04T08:48:51;99294.69;;;6.19;51.23
64876;BME280;51369;49.862;9.908;2023-04-04T08:51:18;99305.34;;;6.27;50.57
64876;BME280;51369;49.862;9.908;2023-04-04T08:53:44;99287.44;;;6.31;50.27
64876;BME280;51369;49.862;9.908;2023-04-04T08:56:10;99292.78;;;6.32;49.76
64876;BME280;51369;49.862;9.908;2023-04-04T08:58:36;99291.91;;;6.29;49.01
64876;BME280;51369;49.862;9.908;2023-04-04T09:01:04;99292.84;;;6.26;51.11
64876;BME280;51369;49.862;9.908;2023-04-04T09:03:32;99292.00;;;6.21;50.21
64876;BME280;51369;49.862;9.908;2023-04-04T09:05:58;99287.56;;;6.18;49.63
64876;BME280;51369;49.862;9.908;2023-04-04T09:08:24;99286.69;;;6.16;51.45
64876;BME280;51369;49.862;9.908;2023-04-04T09:10:51;99291.22;;;6.11;51.22
64876;BME280;51369;49.862;9.908;2023-04-04T09:13:17;99291.25;;;6.08;50.63
64876;BME280;51369;49.862;9.908;2023-04-04T09:15:49;99299.28;;;6.07;51.40
64876;BME280;51369;49.862;9.908;2023-04-04T09:18:15;99292.13;;;6.09;49.25
64876;BME280;51369;49.862;9.908;2023-04-04T09:20:42;99292.91;;;6.20;48.76
64876;BME280;51369;49.862;9.908;2023-04-04T09:23:11;99285.63;;;6.31;48.09
64876;BME280;51369;49.862;9.908;2023-04-04T09:25:43;99300.66;;;6.47;48.60
64876;BME280;51369;49.862;9.908;2023-04-04T09:28:09;99287.94;;;6.63;49.66
64876;BME280;51369;49.862;9.908;2023-04-04T09:30:35;99288.63;;;6.80;49.59
64876;BME280;51369;49.862;9.908;2023-04-04T09:33:03;99288.47;;;6.91;49.34
64876;BME280;51369;49.862;9.908;2023-04-04T09:35:31;99282.09;;;6.97;51.31
64876;BME280;51369;49.862;9.908;2023-04-04T09:37:57;99280.31;;;6.97;49.70
64876;BME280;51369;49.862;9.908;2023-04-04T09:40:22;99278.53;;;6.96;48.68
64876;BME280;51369;49.862;9.908;2023-04-04T09:42:52;99285.72;;;6.94;49.24
64876;BME280;51369;49.862;9.908;2023-04-04T09:45:18;99275.94;;;6.92;49.58
64876;BME280;51369;49.862;9.908;2023-04-04T09:47:44;99284.81;;;6.94;50.22
64876;BME280;51369;49.862;9.908;2023-04-04T09:50:19;99267.63;;;7.08;50.25
64876;BME280;51369;49.862;9.908;2023-04-04T09:52:47;99274.50;;;7.28;49.47
64876;BME280;51369;49.862;9.908;2023-04-04T09:55:13;99280.38;;;7.53;49.83
64876;BME280;51369;49.862;9.908;2023-04-04T09:57:39;99289.03;;;7.71;48.69
64876;BME280;51369;49.862;9.908;2023-04-04T10:00:06;99275.38;;;7.83;47.78
64876;BME280;51369;49.862;9.908;2023-04-04T10:02:38;99272.59;;;7.88;47.74
64876;BME280;51369;49.862;9.908;2023-04-04T10:05:08;99276.19;;;7.89;47.76
64876;BME280;51369;49.862;9.908;2023-04-04T10:07:37;99275.28;;;7.88;48.22
64876;BME280;51369;49.862;9.908;2023-04-04T10:10:07;99272.47;;;7.96;48.57
64876;BME280;51369;49.862;9.908;2023-04-04T10:12:36;99274.84;;;8.12;47.43
64876;BME280;51369;49.862;9.908;2023-04-04T10:15:02;99270.03;;;8.30;47.46
64876;BME280;51369;49.862;9.908;2023-04-04T10:17:37;99278.97;;;8.33;46.71
64876;BME280;51369;49.862;9.908;2023-04-04T10:20:04;99277.16;;;8.34;46.97
64876;BME280;51369;49.862;9.908;2023-04-04T10:22:31;99269.09;;;8.32;48.19
64876;BME280;51369;49.862;9.908;2023-04-04T10:24:57;99272.63;;;8.37;48.13
64876;BME280;51369;49.862;9.908;2023-04-04T10:27:24;99268.03;;;8.42;47.23
64876;BME280;51369;49.862;9.908;2023-04-04T10:29:50;99271.69;;;8.38;46.25
64876;BME280;51369;49.862;9.908;2023-04-04T10:32:21;99262.81;;;8.32;46.77
64876;BME280;51369;49.862;9.908;2023-04-04T10:35:01;99268.34;;;8.24;46.41
64876;BME280;51369;49.862;9.908;2023-04-04T10:37:31;99263.75;;;8.31;45.82
64876;BME280;51369;49.862;9.908;2023-04-04T10:40:12;99262.75;;;8.36;44.54
64876;BME280;51369;49.862;9.908;2023-04-04T10:42:40;99260.81;;;8.44;46.26
64876;BME280;51369;49.862;9.908;2023-04-04T10:45:08;99260.66;;;8.52;46.57
64876;BME280;51369;49.862;9.908;2023-04-04T10:47:38;99261.56;;;8.51;46.13
64876;BME280;51369;49.862;9.908;2023-04-04T10:50:04;99269.56;;;8.56;45.59
64876;BME280;51369;49.862;9.908;2023-04-04T10:52:42;99260.38;;;8.66;45.21
64876;BME280;51369;49.862;9.908;2023-04-04T10:55:10;99264.78;;;8.68;44.66
64876;BME280;51369;49.862;9.908;2023-04-04T10:57:42;99262.28;;;8.61;45.58
64876;BME280;51369;49.862;9.908;2023-04-04T11:00:10;99259.69;;;8.56;45.78
64876;BME280;51369;49.862;9.908;2023-04-04T11:02:56;99252.22;;;8.67;45.84
64876;BME280;51369;49.862;9.908;2023-04-04T11:05:33;99246.38;;;8.89;45.66
64876;BME280;51369;49.862;9.908;2023-04-04T11:08:05;99238.53;;;9.18;46.99
64876;BME280;51369;49.862;9.908;2023-04-04T11:10:42;99234.44;;;9.39;46.45
64876;BME280;51369;49.862;9.908;2023-04-04T11:13:23;99232.78;;;9.69;46.00
64876;BME280;51369;49.862;9.908;2023-04-04T11:20:56;99229.63;;;10.21;43.57
64876;BME280;51369;49.862;9.908;2023-04-04T11:23:23;99241.41;;;10.17;44.43
64876;BME280;51369;49.862;9.908;2023-04-04T11:25:54;99235.56;;;10.00;43.64
64876;BME280;51369;49.862;9.908;2023-04-04T11:42:11;99214.63;;;10.42;44.11
64876;BME280;51369;49.862;9.908;2023-04-04T11:49:38;99219.53;;;10.59;45.95
64876;BME280;51369;49.862;9.908;2023-04-04T11:52:10;99227.50;;;10.63;46.99
64876;BME280;51369;49.862;9.908;2023-04-04T11:54:37;99208.47;;;10.68;46.06
64876;BME280;51369;49.862;9.908;2023-04-04T11:57:05;99207.25;;;10.78;46.06
64876;BME280;51369;49.862;9.908;2023-04-04T11:59:30;99203.94;;;10.98;43.64
64876;BME280;51369;49.862;9.908;2023-04-04T12:01:56;99198.69;;;11.21;45.23
64876;BME280;51369;49.862;9.908;2023-04-04T12:04:24;99195.63;;;11.32;47.99
64876;BME280;51369;49.862;9.908;2023-04-04T12:06:52;99201.09;;;11.30;44.05
64876;BME280;51369;49.862;9.908;2023-04-04T12:09:18;99197.22;;;11.39;42.73
64876;BME280;51369;49.862;9.908;2023-04-04T12:11:46;99197.78;;;11.49;44.00
64876;BME280;51369;49.862;9.908;2023-04-04T12:14:18;99188.63;;;11.53;44.42
64876;BME280;51369;49.862;9.908;2023-04-04T12:16:46;99186.81;;;11.53;44.93
64876;BME280;51369;49.862;9.908;2023-04-04T12:19:12;99186.81;;;11.53;46.37
64876;BME280;51369;49.862;9.908;2023-04-04T12:21:38;99181.66;;;11.46;42.62
64876;BME280;51369;49.862;9.908;2023-04-04T12:24:05;99194.25;;;11.47;44.55
64876;BME280;51369;49.862;9.908;2023-04-04T12:26:32;99184.41;;;11.44;45.64
64876;BME280;51369;49.862;9.908;2023-04-04T12:28:57;99178.22;;;11.40;43.34
64876;BME280;51369;49.862;9.908;2023-04-04T12:31:24;99174.75;;;11.37;43.91
64876;BME280;51369;49.862;9.908;2023-04-04T12:33:50;99177.84;;;11.25;46.13
64876;BME280;51369;49.862;9.908;2023-04-04T12:36:19;99170.88;;;11.18;44.19
64876;BME280;51369;49.862;9.908;2023-04-04T12:39:04;99161.72;;;11.22;43.46
64876;BME280;51369;49.862;9.908;2023-04-04T12:41:32;99150.88;;;11.23;45.38
64876;BME280;51369;49.862;9.908;2023-04-04T12:44:01;99167.44;;;11.13;45.56
64876;BME280;51369;49.862;9.908;2023-04-04T12:46:34;99152.66;;;10.96;43.17
64876;BME280;51369;49.862;9.908;2023-04-04T12:48:59;99154.59;;;10.91;43.81
64876;BME280;51369;49.862;9.908;2023-04-04T12:51:31;99151.72;;;10.97;43.36
64876;BME280;51369;49.862;9.908;2023-04-04T12:53:58;99166.41;;;10.89;43.60
64876;BME280;51369;49.862;9.908;2023-04-04T12:56:27;99156.53;;;10.88;43.37
64876;BME280;51369;49.862;9.908;2023-04-04T12:58:59;99150.13;;;10.90;41.22
64876;BME280;51369;49.862;9.908;2023-04-04T13:01:24;99154.59;;;10.91;43.39
64876;BME280;51369;49.862;9.908;2023-04-04T13:03:50;99154.28;;;10.72;43.29
64876;BME280;51369;49.862;9.908;2023-04-04T13:06:16;99148.16;;;10.67;43.03
64876;BME280;51369;49.862;9.908;2023-04-04T13:08:51;99150.63;;;10.75;43.93
64876;BME280;51369;49.862;9.908;2023-04-04T13:11:17;99152.94;;;10.87;41.90
64876;BME280;51369;49.862;9.908;2023-04-04T13:13:43;99152.69;;;10.95;44.68
64876;BME280;51369;49.862;9.908;2023-04-04T13:16:09;99150.47;;;11.07;43.67
64876;BME280;51369;49.862;9.908;2023-04-04T13:18:40;99151.41;;;11.06;43.46
64876;BME280;51369;49.862;9.908;2023-04-04T13:21:10;99154.41;;;10.97;45.51
64876;BME280;51369;49.862;9.908;2023-04-04T13:23:37;99154.41;;;10.69;43.92
64876;BME280;51369;49.862;9.908;2023-04-04T13:26:07;99151.72;;;10.40;44.00
64876;BME280;51369;49.862;9.908;2023-04-04T13:28:33;99162.41;;;10.12;44.32
64876;BME280;51369;49.862;9.908;2023-04-04T13:31:06;99152.75;;;10.03;43.90
64876;BME280;51369;49.862;9.908;2023-04-04T13:33:33;99155.94;;;10.18;44.61
64876;BME280;51369;49.862;9.908;2023-04-04T13:35:59;99136.44;;;10.39;44.27
64876;BME280;51369;49.862;9.908;2023-04-04T13:38:26;99135.91;;;10.56;43.52